createdAt,value
2023-04-27T00:00:18.484Z,687.00
2023-04-27T00:01:18.468Z,686.00
2023-04-27T00:02:18.655Z,684.00
2023-04-27T00:03:18.685Z,682.00
2023-04-27T00:04:18.652Z,681.00
2023-04-27T00:05:18.470Z,681.00
2023-04-27T00:06:18.509Z,683.00
2023-04-27T00:07:18.436Z,684.00
2023-04-27T00:08:18.420Z,684.00
2023-04-27T00:09:18.420Z,687.00
2023-04-27T00:10:18.411Z,685.00
2023-04-27T00:11:18.397Z,685.00
2023-04-27T00:12:18.398Z,686.00
2023-04-27T00:13:18.405Z,686.00
2023-04-27T00:14:18.374Z,686.00
2023-04-27T00:15:18.400Z,688.00
2023-04-27T00:16:18.471Z,690.00
2023-04-27T00:17:18.477Z,693.00
2023-04-27T00:18:18.513Z,693.00
2023-04-27T00:19:18.555Z,693.00
2023-04-27T00:20:18.598Z,693.00
2023-04-27T00:21:18.648Z,693.00
2023-04-27T00:22:18.683Z,691.00
2023-04-27T00:23:18.721Z,691.00
2023-04-27T00:24:18.768Z,690.00
2023-04-27T00:25:19.081Z,691.00
2023-04-27T00:26:18.847Z,691.00
2023-04-27T00:27:18.878Z,690.00
2023-04-27T00:28:18.923Z,688.00
2023-04-27T00:29:18.979Z,686.00
2023-04-27T00:30:18.991Z,687.00
2023-04-27T00:31:19.086Z,689.00
2023-04-27T00:32:19.110Z,689.00
2023-04-27T00:33:19.124Z,686.00
2023-04-27T00:34:19.151Z,686.00
2023-04-27T00:35:19.198Z,688.00
2023-04-27T00:36:19.222Z,684.00
2023-04-27T00:37:19.259Z,685.00
2023-04-27T00:38:19.303Z,683.00
2023-04-27T00:39:20.004Z,683.00
2023-04-27T00:40:19.354Z,684.00
2023-04-27T00:41:19.390Z,684.00
2023-04-27T00:42:19.452Z,683.00
2023-04-27T00:43:19.472Z,681.00
2023-04-27T00:44:19.498Z,680.00
2023-04-27T00:45:19.576Z,685.00
2023-04-27T00:46:19.694Z,684.00
2023-04-27T00:47:19.651Z,682.00
2023-04-27T00:48:19.653Z,679.00
2023-04-27T00:49:19.679Z,676.00
2023-04-27T00:50:19.730Z,673.00
2023-04-27T00:51:19.748Z,676.00
2023-04-27T00:52:19.778Z,676.00
2023-04-27T00:53:19.819Z,673.00
2023-04-27T00:54:19.857Z,673.00
2023-04-27T00:55:19.881Z,673.00
2023-04-27T00:56:19.920Z,673.00
2023-04-27T00:57:19.960Z,674.00
2023-04-27T00:58:20.000Z,674.00
2023-04-27T00:59:20.041Z,673.00
2023-04-27T01:00:20.071Z,675.00
2023-04-27T01:01:20.162Z,679.00
2023-04-27T01:02:20.192Z,677.00
2023-04-27T01:03:20.412Z,675.00
2023-04-27T01:04:20.366Z,674.00
2023-04-27T01:05:20.240Z,673.00
2023-04-27T01:06:20.271Z,674.00
2023-04-27T01:07:20.309Z,673.00
2023-04-27T01:08:20.347Z,672.00
2023-04-27T01:09:20.392Z,672.00
2023-04-27T01:10:20.400Z,667.00
2023-04-27T01:11:20.435Z,666.00
2023-04-27T01:12:20.476Z,667.00
2023-04-27T01:13:20.524Z,668.00
2023-04-27T01:14:20.599Z,667.00
2023-04-27T01:15:20.575Z,668.00
2023-04-27T01:16:20.657Z,668.00
2023-04-27T01:17:20.655Z,671.00
2023-04-27T01:18:20.665Z,673.00
2023-04-27T01:19:20.701Z,676.00
2023-04-27T01:20:20.738Z,673.00
2023-04-27T01:21:20.766Z,671.00
2023-04-27T01:22:21.730Z,672.00
2023-04-27T01:23:20.855Z,671.00
2023-04-27T01:24:20.877Z,673.00
2023-04-27T01:25:20.920Z,671.00
2023-04-27T01:26:20.947Z,672.00
2023-04-27T01:27:20.983Z,669.00
2023-04-27T01:28:21.028Z,669.00
2023-04-27T01:29:21.052Z,669.00
2023-04-27T01:30:21.232Z,670.00
2023-04-27T01:31:21.137Z,671.00
2023-04-27T01:32:21.187Z,670.00
2023-04-27T01:33:21.210Z,672.00
2023-04-27T01:34:21.229Z,670.00
2023-04-27T01:35:21.256Z,666.00
2023-04-27T01:36:21.281Z,663.00
2023-04-27T01:37:21.315Z,663.00
2023-04-27T01:38:21.347Z,664.00
2023-04-27T01:39:21.389Z,668.00
2023-04-27T01:40:24.246Z,669.00
2023-04-27T01:41:21.747Z,667.00
2023-04-27T01:42:21.417Z,664.00
2023-04-27T01:43:21.393Z,662.00
2023-04-27T01:44:21.399Z,662.00
2023-04-27T01:45:21.385Z,660.00
2023-04-27T01:46:21.446Z,660.00
2023-04-27T01:47:21.370Z,657.00
2023-04-27T01:48:21.363Z,658.00
2023-04-27T01:49:21.383Z,657.00
2023-04-27T01:50:21.366Z,658.00
2023-04-27T01:51:21.355Z,660.00
2023-04-27T01:52:21.338Z,660.00
2023-04-27T01:53:21.330Z,658.00
2023-04-27T01:54:21.329Z,655.00
2023-04-27T01:55:21.321Z,655.00
2023-04-27T01:56:21.323Z,654.00
2023-04-27T01:57:21.318Z,654.00
2023-04-27T01:58:21.296Z,654.00
2023-04-27T01:59:21.289Z,658.00
2023-04-27T02:00:21.282Z,656.00
2023-04-27T02:01:21.350Z,655.00
2023-04-27T02:02:21.437Z,655.00
2023-04-27T02:03:21.364Z,657.00
2023-04-27T02:04:21.492Z,657.00
2023-04-27T02:05:21.277Z,655.00
2023-04-27T02:06:21.239Z,656.00
2023-04-27T02:07:21.231Z,656.00
2023-04-27T02:08:21.222Z,654.00
2023-04-27T02:09:21.233Z,655.00
2023-04-27T02:10:21.262Z,654.00
2023-04-27T02:11:21.306Z,652.00
2023-04-27T02:12:21.340Z,651.00
2023-04-27T02:13:21.391Z,652.00
2023-04-27T02:14:21.416Z,652.00
2023-04-27T02:15:21.442Z,652.00
2023-04-27T02:16:21.523Z,652.00
2023-04-27T02:17:21.515Z,652.00
2023-04-27T02:18:21.553Z,654.00
2023-04-27T02:19:21.601Z,653.00
2023-04-27T02:20:21.629Z,652.00
2023-04-27T02:21:21.699Z,651.00
2023-04-27T02:22:21.702Z,652.00
2023-04-27T02:23:21.738Z,653.00
2023-04-27T02:24:21.767Z,652.00
2023-04-27T02:25:21.815Z,651.00
2023-04-27T02:26:21.850Z,650.00
2023-04-27T02:27:21.896Z,650.00
2023-04-27T02:28:21.925Z,649.00
2023-04-27T02:29:21.956Z,648.00
2023-04-27T02:30:21.998Z,649.00
2023-04-27T02:31:22.084Z,650.00
2023-04-27T02:32:22.083Z,648.00
2023-04-27T02:33:22.110Z,648.00
2023-04-27T02:34:22.151Z,651.00
2023-04-27T02:35:22.266Z,651.00
2023-04-27T02:36:22.220Z,653.00
2023-04-27T02:37:22.293Z,652.00
2023-04-27T02:38:22.307Z,651.00
2023-04-27T02:39:22.344Z,648.00
2023-04-27T02:40:22.391Z,651.00
2023-04-27T02:41:22.434Z,652.00
2023-04-27T02:42:22.471Z,653.00
2023-04-27T02:43:22.503Z,657.00
2023-04-27T02:44:22.548Z,657.00
2023-04-27T02:45:22.593Z,656.00
2023-04-27T02:46:22.666Z,656.00
2023-04-27T02:47:22.684Z,654.00
2023-04-27T02:48:22.699Z,654.00
2023-04-27T02:49:22.745Z,655.00
2023-04-27T02:50:22.785Z,657.00
2023-04-27T02:51:22.824Z,657.00
2023-04-27T02:52:22.869Z,657.00
2023-04-27T02:53:22.928Z,656.00
2023-04-27T02:54:22.942Z,652.00
2023-04-27T02:55:22.993Z,652.00
2023-04-27T02:56:23.015Z,652.00
2023-04-27T02:57:23.047Z,654.00
2023-04-27T02:58:23.092Z,651.00
2023-04-27T02:59:23.134Z,650.00
2023-04-27T03:00:23.163Z,652.00
2023-04-27T03:01:23.272Z,653.00
2023-04-27T03:02:23.294Z,652.00
2023-04-27T03:03:23.384Z,650.00
2023-04-27T03:04:23.395Z,651.00
2023-04-27T03:05:23.348Z,651.00
2023-04-27T03:06:23.388Z,653.00
2023-04-27T03:07:23.447Z,653.00
2023-04-27T03:08:23.474Z,653.00
2023-04-27T03:09:23.536Z,654.00
2023-04-27T03:10:23.558Z,654.00
2023-04-27T03:11:23.598Z,653.00
2023-04-27T03:12:23.644Z,649.00
2023-04-27T03:13:23.685Z,648.00
2023-04-27T03:14:23.724Z,646.00
2023-04-27T03:15:23.765Z,647.00
2023-04-27T03:16:23.831Z,643.00
2023-04-27T03:17:23.856Z,643.00
2023-04-27T03:18:23.895Z,643.00
2023-04-27T03:19:23.913Z,644.00
2023-04-27T03:20:23.962Z,644.00
2023-04-27T03:21:24.006Z,644.00
2023-04-27T03:22:24.055Z,645.00
2023-04-27T03:23:24.090Z,646.00
2023-04-27T03:24:24.133Z,644.00
2023-04-27T03:25:24.211Z,645.00
2023-04-27T03:26:24.233Z,644.00
2023-04-27T03:27:24.258Z,642.00
2023-04-27T03:28:24.298Z,641.00
2023-04-27T03:29:24.344Z,641.00
2023-04-27T03:30:24.384Z,639.00
2023-04-27T03:31:24.463Z,640.00
2023-04-27T03:32:24.513Z,641.00
2023-04-27T03:33:24.510Z,641.00
2023-04-27T03:34:24.544Z,641.00
2023-04-27T03:35:24.592Z,639.00
2023-04-27T03:36:24.616Z,640.00
2023-04-27T03:37:24.666Z,638.00
2023-04-27T03:38:24.697Z,639.00
2023-04-27T03:39:24.742Z,637.00
2023-04-27T03:40:24.776Z,636.00
2023-04-27T03:41:24.841Z,637.00
2023-04-27T03:42:24.867Z,639.00
2023-04-27T03:43:24.890Z,637.00
2023-04-27T03:44:24.938Z,639.00
2023-04-27T03:45:24.973Z,639.00
2023-04-27T03:46:25.041Z,638.00
2023-04-27T03:47:25.119Z,636.00
2023-04-27T03:48:25.089Z,637.00
2023-04-27T03:49:25.143Z,639.00
2023-04-27T03:50:25.165Z,639.00
2023-04-27T03:51:25.200Z,641.00
2023-04-27T03:52:25.241Z,643.00
2023-04-27T03:53:25.296Z,642.00
2023-04-27T03:54:25.324Z,640.00
2023-04-27T03:55:25.371Z,641.00
2023-04-27T03:56:25.396Z,639.00
2023-04-27T03:57:25.460Z,639.00
2023-04-27T03:58:25.474Z,640.00
2023-04-27T03:59:25.524Z,638.00
2023-04-27T04:00:25.562Z,640.00
2023-04-27T04:01:25.601Z,640.00
2023-04-27T04:02:25.761Z,638.00
2023-04-27T04:03:25.997Z,635.00
2023-04-27T04:04:25.874Z,635.00
2023-04-27T04:05:25.774Z,637.00
2023-04-27T04:06:25.800Z,637.00
2023-04-27T04:07:25.869Z,639.00
2023-04-27T04:08:25.883Z,639.00
2023-04-27T04:09:25.930Z,639.00
2023-04-27T04:10:25.974Z,637.00
2023-04-27T04:11:26.005Z,637.00
2023-04-27T04:12:26.052Z,639.00
2023-04-27T04:13:26.149Z,641.00
2023-04-27T04:14:26.141Z,640.00
2023-04-27T04:15:26.188Z,640.00
2023-04-27T04:16:26.245Z,639.00
2023-04-27T04:17:26.283Z,636.00
2023-04-27T04:18:26.317Z,634.00
2023-04-27T04:19:26.361Z,637.00
2023-04-27T04:20:26.404Z,636.00
2023-04-27T04:21:26.462Z,634.00
2023-04-27T04:22:26.500Z,636.00
2023-04-27T04:23:26.554Z,635.00
2023-04-27T04:24:26.584Z,635.00
2023-04-27T04:25:26.624Z,634.00
2023-04-27T04:26:26.662Z,637.00
2023-04-27T04:27:26.701Z,636.00
2023-04-27T04:28:26.747Z,637.00
2023-04-27T04:29:26.817Z,636.00
2023-04-27T04:30:26.845Z,636.00
2023-04-27T04:31:26.940Z,635.00
2023-04-27T04:32:26.940Z,632.00
2023-04-27T04:33:26.953Z,632.00
2023-04-27T04:34:27.000Z,630.00
2023-04-27T04:35:27.053Z,631.00
2023-04-27T04:36:27.089Z,632.00
2023-04-27T04:37:27.133Z,631.00
2023-04-27T04:38:27.179Z,629.00
2023-04-27T04:39:27.217Z,630.00
2023-04-27T04:40:27.269Z,631.00
2023-04-27T04:41:27.303Z,630.00
2023-04-27T04:42:27.354Z,630.00
2023-04-27T04:43:27.392Z,629.00
2023-04-27T04:44:27.437Z,629.00
2023-04-27T04:45:27.505Z,631.00
2023-04-27T04:46:27.543Z,631.00
2023-04-27T04:47:27.606Z,633.00
2023-04-27T04:48:27.592Z,633.00
2023-04-27T04:49:27.653Z,634.00
2023-04-27T04:50:27.690Z,636.00
2023-04-27T04:51:27.732Z,638.00
2023-04-27T04:52:27.777Z,639.00
2023-04-27T04:53:27.814Z,640.00
2023-04-27T04:54:27.899Z,639.00
2023-04-27T04:55:27.886Z,639.00
2023-04-27T04:56:27.920Z,639.00
2023-04-27T04:57:28.047Z,637.00
2023-04-27T04:58:28.002Z,636.00
2023-04-27T04:59:29.425Z,634.00
2023-04-27T05:00:28.032Z,635.00
2023-04-27T05:01:28.090Z,636.00
2023-04-27T05:02:28.217Z,635.00
2023-04-27T05:03:28.213Z,635.00
2023-04-27T05:04:28.194Z,635.00
2023-04-27T05:05:28.000Z,636.00
2023-04-27T05:06:27.995Z,635.00
2023-04-27T05:07:27.992Z,633.00
2023-04-27T05:08:27.982Z,632.00
2023-04-27T05:09:27.978Z,632.00
2023-04-27T05:10:27.967Z,630.00
2023-04-27T05:11:27.979Z,628.00
2023-04-27T05:12:27.983Z,630.00
2023-04-27T05:13:27.954Z,631.00
2023-04-27T05:14:27.950Z,629.00
2023-04-27T05:15:27.932Z,627.00
2023-04-27T05:16:27.985Z,629.00
2023-04-27T05:17:27.974Z,630.00
2023-04-27T05:18:27.900Z,632.00
2023-04-27T05:19:27.898Z,633.00
2023-04-27T05:20:27.914Z,631.00
2023-04-27T05:21:27.898Z,631.00
2023-04-27T05:22:27.886Z,633.00
2023-04-27T05:23:27.872Z,638.00
2023-04-27T05:24:27.960Z,640.00
2023-04-27T05:25:27.852Z,644.00
2023-04-27T05:26:27.844Z,647.00
2023-04-27T05:27:27.858Z,647.00
2023-04-27T05:28:27.838Z,649.00
2023-04-27T05:29:27.853Z,649.00
2023-04-27T05:30:27.886Z,650.00
2023-04-27T05:31:27.942Z,649.00
2023-04-27T05:32:27.967Z,647.00
2023-04-27T05:33:28.022Z,648.00
2023-04-27T05:34:28.037Z,650.00
2023-04-27T05:35:28.081Z,649.00
2023-04-27T05:36:28.110Z,649.00
2023-04-27T05:37:28.162Z,648.00
2023-04-27T05:38:28.200Z,652.00
2023-04-27T05:39:28.227Z,654.00
2023-04-27T05:40:28.319Z,656.00
2023-04-27T05:41:28.303Z,657.00
2023-04-27T05:42:28.839Z,660.00
2023-04-27T05:43:28.383Z,661.00
2023-04-27T05:44:28.562Z,664.00
2023-04-27T05:45:28.852Z,674.00
2023-04-27T05:46:28.524Z,684.00
2023-04-27T05:47:28.528Z,687.00
2023-04-27T05:48:28.559Z,688.00
2023-04-27T05:49:28.626Z,689.00
2023-04-27T05:50:28.839Z,698.00
2023-04-27T05:51:29.624Z,707.00
2023-04-27T05:52:28.830Z,722.00
2023-04-27T05:53:28.709Z,742.00
2023-04-27T05:54:28.732Z,779.00
2023-04-27T05:55:28.799Z,805.00
2023-04-27T05:56:28.849Z,816.00
2023-04-27T05:57:28.890Z,847.00
2023-04-27T05:58:28.868Z,897.00
2023-04-27T05:59:28.884Z,883.00
2023-04-27T06:00:28.977Z,886.00
2023-04-27T06:01:28.934Z,877.00
2023-04-27T06:02:29.233Z,868.00
2023-04-27T06:03:29.241Z,862.00
2023-04-27T06:04:29.257Z,857.00
2023-04-27T06:05:29.129Z,852.00
2023-04-27T06:06:29.039Z,847.00
2023-04-27T06:07:29.081Z,845.00
2023-04-27T06:08:29.340Z,840.00
2023-04-27T06:09:29.121Z,834.00
2023-04-27T06:10:29.336Z,828.00
2023-04-27T06:11:29.190Z,828.00
2023-04-27T06:12:29.208Z,827.00
2023-04-27T06:13:29.276Z,822.00
2023-04-27T06:14:29.270Z,818.00
2023-04-27T06:15:29.327Z,814.00
2023-04-27T06:16:29.360Z,811.00
2023-04-27T06:17:29.441Z,808.00
2023-04-27T06:18:29.397Z,807.00
2023-04-27T06:19:29.437Z,806.00
2023-04-27T06:20:29.477Z,803.00
2023-04-27T06:21:29.523Z,801.00
2023-04-27T06:22:29.532Z,800.00
2023-04-27T06:23:36.047Z,798.00
2023-04-27T06:24:29.557Z,796.00
2023-04-27T06:25:29.869Z,795.00
2023-04-27T06:26:29.532Z,793.00
2023-04-27T06:27:29.868Z,792.00
2023-04-27T06:28:29.524Z,792.00
2023-04-27T06:29:29.511Z,793.00
2023-04-27T06:30:29.872Z,791.00
2023-04-27T06:31:29.550Z,789.00
2023-04-27T06:32:29.534Z,789.00
2023-04-27T06:33:29.480Z,789.00
2023-04-27T06:34:29.483Z,788.00
2023-04-27T06:35:29.884Z,787.00
2023-04-27T06:36:29.880Z,789.00
2023-04-27T06:37:29.492Z,790.00
2023-04-27T06:38:29.451Z,789.00
2023-04-27T06:39:29.432Z,785.00
2023-04-27T06:40:29.431Z,785.00
2023-04-27T06:41:29.421Z,787.00
2023-04-27T06:42:29.418Z,788.00
2023-04-27T06:43:29.404Z,788.00
2023-04-27T06:44:29.405Z,787.00
2023-04-27T06:45:29.872Z,786.00
2023-04-27T06:46:29.910Z,784.00
2023-04-27T06:47:29.420Z,783.00
2023-04-27T06:48:29.431Z,782.00
2023-04-27T06:49:29.468Z,781.00
2023-04-27T06:50:29.886Z,781.00
2023-04-27T06:51:29.546Z,781.00
2023-04-27T06:52:29.572Z,783.00
2023-04-27T06:53:29.688Z,782.00
2023-04-27T06:54:29.631Z,782.00
2023-04-27T06:55:29.890Z,783.00
2023-04-27T06:56:29.914Z,783.00
2023-04-27T06:57:29.716Z,781.00
2023-04-27T06:58:29.883Z,782.00
2023-04-27T06:59:29.774Z,783.00
2023-04-27T07:00:30.129Z,783.00
2023-04-27T07:01:30.858Z,781.00
2023-04-27T07:02:29.882Z,781.00
2023-04-27T07:03:31.526Z,780.00
2023-04-27T07:04:29.908Z,777.00
2023-04-27T07:05:29.891Z,778.00
2023-04-27T07:06:29.880Z,777.00
2023-04-27T07:07:29.874Z,775.00
2023-04-27T07:08:29.909Z,774.00
2023-04-27T07:09:30.305Z,775.00
2023-04-27T07:10:29.868Z,775.00
2023-04-27T07:11:29.853Z,771.00
2023-04-27T07:12:29.850Z,773.00
2023-04-27T07:13:29.845Z,773.00
2023-04-27T07:14:29.838Z,773.00
2023-04-27T07:15:29.918Z,773.00
2023-04-27T07:16:29.910Z,775.00
2023-04-27T07:17:37.253Z,777.00
2023-04-27T07:18:29.802Z,776.00
2023-04-27T07:19:29.794Z,777.00
2023-04-27T07:20:29.789Z,777.00
2023-04-27T07:21:29.789Z,776.00
2023-04-27T07:22:29.772Z,774.00
2023-04-27T07:23:29.907Z,772.00
2023-04-27T07:24:29.759Z,769.00
2023-04-27T07:25:29.776Z,770.00
2023-04-27T07:26:29.888Z,769.00
2023-04-27T07:27:29.729Z,769.00
2023-04-27T07:28:29.945Z,765.00
2023-04-27T07:29:30.023Z,763.00
2023-04-27T07:30:29.808Z,761.00
2023-04-27T07:31:29.933Z,761.00
2023-04-27T07:32:29.751Z,761.00
2023-04-27T07:33:37.111Z,762.00
2023-04-27T07:34:41.209Z,760.00
2023-04-27T07:35:29.680Z,762.00
2023-04-27T07:36:29.896Z,766.00
2023-04-27T07:37:29.703Z,772.00
2023-04-27T07:38:29.661Z,797.00
2023-04-27T07:39:29.651Z,829.00
2023-04-27T07:40:29.640Z,850.00
2023-04-27T07:41:29.661Z,874.00
2023-04-27T07:42:29.634Z,935.00
2023-04-27T07:43:29.619Z,951.00
2023-04-27T07:44:29.611Z,964.00
2023-04-27T07:45:29.717Z,987.00
2023-04-27T07:46:29.898Z,996.00
2023-04-27T07:47:29.832Z,1008.00
2023-04-27T07:48:29.916Z,1011.00
2023-04-27T07:49:29.572Z,867.00
2023-04-27T07:50:29.567Z,847.00
2023-04-27T07:51:33.116Z,786.00
2023-04-27T07:52:29.928Z,799.00
2023-04-27T07:53:29.563Z,875.00
2023-04-27T07:54:29.926Z,903.00
2023-04-27T07:55:29.543Z,925.00
2023-04-27T07:56:29.533Z,965.00
2023-04-27T07:57:29.937Z,996.00
2023-04-27T07:58:29.522Z,1072.00
2023-04-27T07:59:29.504Z,1070.00
2023-04-27T08:00:29.516Z,1078.00
2023-04-27T08:01:29.491Z,1110.00
2023-04-27T08:02:30.014Z,1130.00
2023-04-27T08:03:29.906Z,1150.00
2023-04-27T08:04:29.952Z,1158.00
2023-04-27T08:05:30.285Z,1166.00
2023-04-27T08:06:30.260Z,1178.00
2023-04-27T08:07:30.147Z,1187.00
2023-04-27T08:08:29.896Z,1223.00
2023-04-27T08:09:29.448Z,1245.00
2023-04-27T08:10:29.465Z,1256.00
2023-04-27T08:11:29.917Z,1263.00
2023-04-27T08:12:29.456Z,1271.00
2023-04-27T08:13:29.946Z,1281.00
2023-04-27T08:14:30.420Z,1288.00
2023-04-27T08:15:29.413Z,1293.00
2023-04-27T08:16:29.955Z,1308.00
2023-04-27T08:17:29.417Z,1323.00
2023-04-27T08:18:29.386Z,1335.00
2023-04-27T08:19:29.388Z,1346.00
2023-04-27T08:20:29.369Z,1361.00
2023-04-27T08:21:29.373Z,1381.00
2023-04-27T08:22:29.372Z,1404.00
2023-04-27T08:23:29.372Z,1419.00
2023-04-27T08:24:29.360Z,1435.00
2023-04-27T08:25:29.356Z,1448.00
2023-04-27T08:26:29.393Z,1461.00
2023-04-27T08:27:29.430Z,1483.00
2023-04-27T08:28:29.468Z,1499.00
2023-04-27T08:29:29.625Z,1519.00
2023-04-27T08:30:29.573Z,1538.00
2023-04-27T08:31:29.670Z,1553.00
2023-04-27T08:32:30.678Z,1567.00
2023-04-27T08:33:29.785Z,1579.00
2023-04-27T08:34:29.828Z,1635.00
2023-04-27T08:35:29.896Z,1642.00
2023-04-27T08:36:29.955Z,1646.00
2023-04-27T08:37:30.411Z,1664.00
2023-04-27T08:38:30.408Z,1684.00
2023-04-27T08:39:30.132Z,1705.00
2023-04-27T08:40:30.173Z,1730.00
2023-04-27T08:41:30.225Z,1750.00
2023-04-27T08:42:30.292Z,1775.00
2023-04-27T08:43:30.411Z,1799.00
2023-04-27T08:44:30.425Z,1823.00
2023-04-27T08:45:30.479Z,1828.00
2023-04-27T08:46:30.525Z,1822.00
2023-04-27T08:47:41.826Z,1828.00
2023-04-27T08:48:30.943Z,1839.00
2023-04-27T08:49:30.505Z,1852.00
2023-04-27T08:50:30.498Z,1864.00
2023-04-27T08:51:30.913Z,1873.00
2023-04-27T08:52:30.494Z,1884.00
2023-04-27T08:53:30.494Z,1902.00
2023-04-27T08:54:30.920Z,1914.00
2023-04-27T08:55:30.482Z,1931.00
2023-04-27T08:56:30.935Z,1954.00
2023-04-27T08:57:30.531Z,1971.00
2023-04-27T08:58:30.445Z,1991.00
2023-04-27T08:59:30.443Z,2009.00
2023-04-27T09:00:30.435Z,2029.00
2023-04-27T09:01:30.960Z,2038.00
2023-04-27T09:02:30.552Z,2046.00
2023-04-27T09:03:30.580Z,2061.00
2023-04-27T09:04:30.534Z,2079.00
2023-04-27T09:05:30.445Z,2088.00
2023-04-27T09:06:30.440Z,2096.00
2023-04-27T09:07:30.403Z,2107.00
2023-04-27T09:08:30.376Z,2122.00
2023-04-27T09:09:30.365Z,2138.00
2023-04-27T09:10:30.497Z,2151.00
2023-04-27T09:11:30.456Z,2168.00
2023-04-27T09:12:30.923Z,2191.00
2023-04-27T09:13:30.581Z,2207.00
2023-04-27T09:14:30.603Z,2247.00
2023-04-27T09:15:30.646Z,2257.00
2023-04-27T09:16:30.996Z,2264.00
2023-04-27T09:17:30.915Z,2271.00
2023-04-27T09:18:30.781Z,2289.00
2023-04-27T09:19:30.851Z,2298.00
2023-04-27T09:20:30.861Z,2310.00
2023-04-27T09:21:30.931Z,2326.00
2023-04-27T09:22:30.947Z,2355.00
2023-04-27T09:23:30.988Z,2374.00
2023-04-27T09:24:31.036Z,2390.00
2023-04-27T09:25:31.075Z,2405.00
2023-04-27T09:26:31.427Z,2420.00
2023-04-27T09:27:31.429Z,2426.00
2023-04-27T09:28:31.193Z,2416.00
2023-04-27T09:29:31.229Z,2405.00
2023-04-27T09:30:31.282Z,2388.00
2023-04-27T09:31:31.485Z,1853.00
2023-04-27T09:32:32.593Z,1684.00
2023-04-27T09:33:31.390Z,1630.00
2023-04-27T09:34:31.430Z,1545.00
2023-04-27T09:35:31.432Z,1493.00
2023-04-27T09:36:31.965Z,1695.00
2023-04-27T09:38:03.739Z,1718.00
2023-04-27T09:38:31.496Z,1364.00
2023-04-27T09:39:31.492Z,1395.00
2023-04-27T09:40:31.609Z,1372.00
2023-04-27T09:41:31.459Z,1453.00
2023-04-27T09:42:31.936Z,1283.00
2023-04-27T09:43:31.460Z,1390.00
2023-04-27T09:44:31.931Z,1433.00
2023-04-27T09:45:31.493Z,1433.00
2023-04-27T09:46:31.466Z,1416.00
2023-04-27T09:47:31.460Z,1336.00
2023-04-27T09:48:31.494Z,1352.00
2023-04-27T09:49:31.426Z,1392.00
2023-04-27T09:50:31.396Z,1368.00
2023-04-27T09:51:31.398Z,1208.00
2023-04-27T09:52:31.386Z,1340.00
2023-04-27T09:53:31.372Z,1343.00
2023-04-27T09:54:31.362Z,1375.00
2023-04-27T09:55:31.381Z,1357.00
2023-04-27T09:56:31.439Z,1335.00
2023-04-27T09:57:31.348Z,1265.00
2023-04-27T09:58:31.465Z,1241.00
2023-04-27T09:59:31.465Z,1252.00
2023-04-27T10:00:31.336Z,1233.00
2023-04-27T10:01:31.335Z,1249.00
2023-04-27T10:02:35.001Z,1271.00
2023-04-27T10:03:31.412Z,1286.00
2023-04-27T10:04:31.608Z,1288.00
2023-04-27T10:05:31.289Z,1272.00
2023-04-27T10:06:31.289Z,1271.00
2023-04-27T10:07:31.282Z,1275.00
2023-04-27T10:08:31.285Z,1178.00
2023-04-27T10:09:31.472Z,1181.00
2023-04-27T10:10:31.257Z,1178.00
2023-04-27T10:11:31.256Z,1196.00
2023-04-27T10:12:31.242Z,1164.00
2023-04-27T10:13:31.248Z,1195.00
2023-04-27T10:14:31.454Z,1192.00
2023-04-27T10:15:31.244Z,1120.00
2023-04-27T10:16:31.498Z,1143.00
2023-04-27T10:17:31.259Z,1155.00
2023-04-27T10:18:31.447Z,1151.00
2023-04-27T10:19:31.200Z,1032.00
2023-04-27T10:20:31.213Z,1095.00
2023-04-27T10:21:31.464Z,1095.00
2023-04-27T10:22:31.183Z,1041.00
2023-04-27T10:23:31.457Z,1019.00
2023-04-27T10:24:31.450Z,1127.00
2023-04-27T10:25:31.165Z,1073.00
2023-04-27T10:26:33.536Z,1061.00
2023-04-27T10:27:31.142Z,1077.00
2023-04-27T10:28:31.482Z,1079.00
2023-04-27T10:29:31.128Z,1062.00
2023-04-27T10:30:31.179Z,1083.00
2023-04-27T10:31:31.173Z,1088.00
2023-04-27T10:32:31.493Z,1068.00
2023-04-27T10:33:31.178Z,1084.00
2023-04-27T10:34:31.457Z,1097.00
2023-04-27T10:35:31.088Z,1097.00
2023-04-27T10:36:31.112Z,1101.00
2023-04-27T10:37:31.079Z,1087.00
2023-04-27T10:38:31.088Z,1094.00
2023-04-27T10:39:44.078Z,1090.00
2023-04-27T10:40:31.060Z,1091.00
2023-04-27T10:41:31.047Z,1095.00
2023-04-27T10:42:31.041Z,1091.00
2023-04-27T10:43:31.037Z,1107.00
2023-04-27T10:44:31.474Z,1125.00
2023-04-27T10:45:32.129Z,1117.00
2023-04-27T10:46:31.492Z,1114.00
2023-04-27T10:47:31.041Z,1105.00
2023-04-27T10:48:30.996Z,1112.00
2023-04-27T10:49:31.469Z,1108.00
2023-04-27T10:50:30.979Z,1118.00
2023-04-27T10:51:30.987Z,1063.00
2023-04-27T10:52:30.993Z,1092.00
2023-04-27T10:53:30.978Z,1025.00
2023-04-27T10:54:30.962Z,1090.00
2023-04-27T10:55:30.951Z,1106.00
2023-04-27T10:56:30.938Z,1113.00
2023-04-27T10:57:30.939Z,1115.00
2023-04-27T10:58:41.549Z,1109.00
2023-04-27T10:59:30.967Z,1115.00
2023-04-27T11:00:30.921Z,1112.00
2023-04-27T11:01:30.934Z,1104.00
2023-04-27T11:02:30.970Z,1103.00
2023-04-27T11:03:30.984Z,1100.00
2023-04-27T11:04:31.023Z,1079.00
2023-04-27T11:05:30.886Z,1062.00
2023-04-27T11:06:30.974Z,1070.00
2023-04-27T11:07:30.872Z,1079.00
2023-04-27T11:08:30.885Z,1079.00
2023-04-27T11:09:30.856Z,1082.00
2023-04-27T11:10:31.012Z,1095.00
2023-04-27T11:11:31.016Z,1090.00
2023-04-27T11:12:30.832Z,1078.00
2023-04-27T11:13:30.830Z,1074.00
2023-04-27T11:14:30.970Z,1069.00
2023-04-27T11:15:30.850Z,1062.00
2023-04-27T11:16:32.855Z,1058.00
2023-04-27T11:17:30.858Z,1054.00
2023-04-27T11:18:30.815Z,1053.00
2023-04-27T11:19:30.786Z,1053.00
2023-04-27T11:20:30.773Z,1054.00
2023-04-27T11:21:30.970Z,1053.00
2023-04-27T11:22:30.762Z,1047.00
2023-04-27T11:23:30.757Z,1048.00
2023-04-27T11:24:30.786Z,1049.00
2023-04-27T11:25:30.730Z,1052.00
2023-04-27T11:26:30.975Z,1058.00
2023-04-27T11:27:30.720Z,1061.00
2023-04-27T11:28:30.719Z,1062.00
2023-04-27T11:29:31.850Z,1066.00
2023-04-27T11:30:30.700Z,1064.00
2023-04-27T11:31:30.998Z,1066.00
2023-04-27T11:32:30.694Z,1067.00
2023-04-27T11:33:30.681Z,1067.00
2023-04-27T11:34:30.979Z,1065.00
2023-04-27T11:35:30.660Z,1064.00
2023-04-27T11:36:30.977Z,1062.00
2023-04-27T11:37:30.659Z,1060.00
2023-04-27T11:38:30.682Z,1062.00
2023-04-27T11:39:30.984Z,1061.00
2023-04-27T11:40:30.661Z,1062.00
2023-04-27T11:41:31.005Z,1062.00
2023-04-27T11:42:30.608Z,1059.00
2023-04-27T11:43:30.608Z,1061.00
2023-04-27T11:44:30.607Z,1059.00
2023-04-27T11:45:30.591Z,1058.00
2023-04-27T11:46:30.596Z,1056.00
2023-04-27T11:47:30.616Z,1057.00
2023-04-27T11:48:30.566Z,1059.00
2023-04-27T11:49:30.982Z,1062.00
2023-04-27T11:50:30.559Z,1064.00
2023-04-27T11:51:30.557Z,1063.00
2023-04-27T11:52:30.552Z,1066.00
2023-04-27T11:53:30.537Z,1064.00
2023-04-27T11:54:30.549Z,1065.00
2023-04-27T11:55:30.524Z,1063.00
2023-04-27T11:56:30.543Z,1062.00
2023-04-27T11:57:30.519Z,1060.00
2023-04-27T11:58:30.509Z,1059.00
2023-04-27T11:59:30.506Z,1057.00
2023-04-27T12:00:30.990Z,1056.00
2023-04-27T12:01:37.713Z,1058.00
2023-04-27T12:02:30.625Z,1058.00
2023-04-27T12:03:30.946Z,1057.00
2023-04-27T12:04:30.567Z,1056.00
2023-04-27T12:05:30.554Z,1055.00
2023-04-27T12:06:33.181Z,1055.00
2023-04-27T12:07:30.442Z,1053.00
2023-04-27T12:08:30.439Z,1055.00
2023-04-27T12:09:30.434Z,1056.00
2023-04-27T12:10:30.493Z,1057.00
2023-04-27T12:11:30.426Z,1058.00
2023-04-27T12:12:30.432Z,1057.00
2023-04-27T12:13:30.497Z,1053.00
2023-04-27T12:14:30.425Z,1050.00
2023-04-27T12:15:30.377Z,1049.00
2023-04-27T12:16:30.425Z,1049.00
2023-04-27T12:17:30.480Z,1049.00
2023-04-27T12:18:30.371Z,1050.00
2023-04-27T12:19:30.367Z,1049.00
2023-04-27T12:20:30.352Z,1046.00